createdAt,value
2023-01-27T00:00:56.145Z,0.00
2023-01-27T00:01:56.115Z,0.00
2023-01-27T00:02:56.199Z,0.00
2023-01-27T00:03:56.117Z,0.00
2023-01-27T00:04:56.195Z,0.00
2023-01-27T00:05:56.085Z,0.00
2023-01-27T00:06:56.065Z,0.00
2023-01-27T00:07:56.045Z,0.00
2023-01-27T00:08:56.046Z,0.00
2023-01-27T00:09:56.025Z,0.00
2023-01-27T00:10:56.035Z,0.00
2023-01-27T00:11:56.016Z,0.00
2023-01-27T00:12:56.003Z,0.00
2023-01-27T00:13:55.986Z,0.00
2023-01-27T00:14:55.982Z,0.00
2023-01-27T00:15:56.069Z,0.00
2023-01-27T00:16:55.960Z,0.00
2023-01-27T00:17:55.954Z,0.00
2023-01-27T00:18:55.941Z,0.00
2023-01-27T00:19:55.924Z,0.00
2023-01-27T00:20:55.995Z,0.00
2023-01-27T00:21:55.895Z,0.00
2023-01-27T00:22:55.897Z,0.00
2023-01-27T00:23:55.922Z,0.00
2023-01-27T00:24:55.874Z,0.00
2023-01-27T00:25:55.875Z,0.00
2023-01-27T00:26:55.846Z,0.00
2023-01-27T00:27:55.845Z,0.00
2023-01-27T00:28:55.894Z,0.00
2023-01-27T00:29:55.817Z,0.00
2023-01-27T00:30:55.908Z,0.00
2023-01-27T00:31:55.808Z,0.00
2023-01-27T00:32:55.796Z,0.00
2023-01-27T00:33:55.775Z,0.00
2023-01-27T00:34:55.772Z,0.00
2023-01-27T00:35:55.815Z,0.00
2023-01-27T00:36:55.863Z,0.00
2023-01-27T00:37:55.735Z,0.00
2023-01-27T00:38:55.727Z,0.00
2023-01-27T00:39:55.714Z,0.00
2023-01-27T00:40:55.717Z,0.00
2023-01-27T00:41:55.815Z,0.00
2023-01-27T00:42:55.690Z,0.00
2023-01-27T00:43:55.688Z,0.00
2023-01-27T00:44:55.667Z,0.00
2023-01-27T00:45:55.667Z,0.00
2023-01-27T00:46:55.750Z,0.00
2023-01-27T00:47:55.637Z,0.00
2023-01-27T00:48:55.617Z,0.00
2023-01-27T00:49:55.608Z,0.00
2023-01-27T00:50:55.607Z,0.00
2023-01-27T00:51:55.587Z,0.00
2023-01-27T00:52:55.578Z,0.00
2023-01-27T00:53:55.571Z,0.00
2023-01-27T00:54:55.549Z,0.00
2023-01-27T00:55:55.567Z,0.00
2023-01-27T00:56:55.540Z,0.00
2023-01-27T00:57:55.518Z,0.00
2023-01-27T00:58:55.521Z,0.00
2023-01-27T00:59:55.509Z,0.00
2023-01-27T01:00:55.497Z,0.00
2023-01-27T01:01:55.521Z,0.00
2023-01-27T01:02:55.502Z,0.00
2023-01-27T01:03:55.458Z,0.00
2023-01-27T01:04:55.491Z,0.00
2023-01-27T01:05:55.458Z,0.00
2023-01-27T01:06:55.429Z,0.00
2023-01-27T01:07:55.420Z,0.00
2023-01-27T01:08:55.401Z,0.00
2023-01-27T01:09:55.411Z,0.00
2023-01-27T01:10:55.401Z,0.00
2023-01-27T01:11:55.372Z,0.00
2023-01-27T01:12:55.362Z,0.00
2023-01-27T01:13:56.576Z,0.00
2023-01-27T01:14:55.354Z,0.00
2023-01-27T01:15:55.431Z,0.00
2023-01-27T01:16:55.399Z,0.00
2023-01-27T01:17:55.359Z,0.00
2023-01-27T01:18:55.297Z,0.00
2023-01-27T01:19:55.308Z,0.00
2023-01-27T01:20:55.293Z,0.00
2023-01-27T01:21:55.270Z,0.00
2023-01-27T01:22:55.253Z,0.00
2023-01-27T01:23:55.281Z,0.00
2023-01-27T01:24:55.231Z,0.00
2023-01-27T01:25:55.253Z,0.00
2023-01-27T01:26:55.221Z,0.00
2023-01-27T01:27:55.201Z,0.00
2023-01-27T01:28:55.213Z,0.00
2023-01-27T01:29:55.190Z,0.00
2023-01-27T01:30:55.224Z,0.00
2023-01-27T01:31:55.171Z,0.00
2023-01-27T01:32:55.156Z,0.00
2023-01-27T01:33:55.146Z,0.00
2023-01-27T01:34:55.131Z,0.00
2023-01-27T01:35:55.144Z,0.00
2023-01-27T01:36:55.102Z,0.00
2023-01-27T01:37:55.107Z,0.00
2023-01-27T01:38:55.090Z,0.00
2023-01-27T01:39:55.081Z,0.00
2023-01-27T01:40:55.080Z,0.00
2023-01-27T01:41:55.158Z,0.00
2023-01-27T01:42:55.042Z,0.00
2023-01-27T01:43:55.050Z,0.00
2023-01-27T01:44:55.021Z,0.00
2023-01-27T01:45:55.024Z,0.00
2023-01-27T01:46:55.104Z,0.00
2023-01-27T01:47:54.992Z,0.00
2023-01-27T01:48:54.988Z,0.00
2023-01-27T01:49:54.972Z,0.00
2023-01-27T01:50:54.975Z,0.00
2023-01-27T01:51:54.954Z,0.00
2023-01-27T01:52:54.941Z,0.00
2023-01-27T01:53:54.933Z,0.00
2023-01-27T01:54:54.915Z,0.00
2023-01-27T01:55:54.954Z,0.00
2023-01-27T01:56:54.907Z,0.00
2023-01-27T01:57:54.894Z,0.00
2023-01-27T01:58:54.884Z,0.00
2023-01-27T01:59:54.883Z,0.00
2023-01-27T02:00:54.875Z,0.00
2023-01-27T02:01:54.855Z,0.00
2023-01-27T02:02:54.899Z,0.00
2023-01-27T02:03:54.833Z,0.00
2023-01-27T02:04:54.823Z,0.00
2023-01-27T02:05:54.815Z,0.00
2023-01-27T02:06:54.795Z,0.00
2023-01-27T02:07:54.784Z,0.00
2023-01-27T02:08:54.773Z,0.00
2023-01-27T02:09:54.753Z,0.00
2023-01-27T02:10:54.769Z,0.00
2023-01-27T02:11:54.742Z,0.00
2023-01-27T02:12:54.723Z,0.00
2023-01-27T02:13:54.720Z,0.00
2023-01-27T02:14:54.715Z,0.00
2023-01-27T02:15:54.705Z,0.00
2023-01-27T02:16:54.760Z,0.00
2023-01-27T02:17:54.674Z,0.00
2023-01-27T02:18:54.671Z,0.00
2023-01-27T02:19:54.655Z,0.00
2023-01-27T02:20:54.656Z,0.00
2023-01-27T02:21:54.626Z,0.00
2023-01-27T02:22:54.637Z,0.00
2023-01-27T02:23:54.674Z,0.00
2023-01-27T02:24:54.611Z,0.00
2023-01-27T02:25:54.613Z,0.00
2023-01-27T02:26:54.594Z,0.00
2023-01-27T02:27:54.566Z,0.00
2023-01-27T02:28:54.560Z,0.00
2023-01-27T02:29:54.553Z,0.00
2023-01-27T02:30:54.623Z,0.00
2023-01-27T02:31:54.540Z,0.00
2023-01-27T02:32:54.515Z,0.00
2023-01-27T02:33:54.496Z,0.00
2023-01-27T02:34:54.498Z,0.00
2023-01-27T02:35:54.523Z,0.00
2023-01-27T02:36:54.477Z,0.00
2023-01-27T02:37:54.475Z,0.00
2023-01-27T02:38:54.455Z,0.00
2023-01-27T02:39:54.436Z,0.00
2023-01-27T02:40:54.446Z,0.00
2023-01-27T02:41:54.442Z,0.00
2023-01-27T02:42:54.408Z,0.00
2023-01-27T02:43:54.395Z,0.00
2023-01-27T02:44:54.387Z,0.00
2023-01-27T02:45:54.460Z,0.00
2023-01-27T02:46:54.368Z,0.00
2023-01-27T02:47:54.411Z,0.00
2023-01-27T02:48:54.377Z,0.00
2023-01-27T02:49:54.382Z,0.00
2023-01-27T02:50:54.347Z,0.00
2023-01-27T02:51:54.311Z,0.00
2023-01-27T02:52:54.329Z,0.00
2023-01-27T02:53:54.297Z,0.00
2023-01-27T02:54:54.306Z,0.00
2023-01-27T02:55:54.276Z,0.00
2023-01-27T02:56:54.268Z,0.00
2023-01-27T02:57:54.245Z,0.00
2023-01-27T02:58:54.254Z,0.00
2023-01-27T02:59:54.236Z,0.00
2023-01-27T03:00:54.227Z,0.00
2023-01-27T03:01:54.227Z,0.00
2023-01-27T03:02:54.229Z,0.00
2023-01-27T03:03:54.178Z,0.00
2023-01-27T03:04:54.177Z,0.00
2023-01-27T03:05:54.187Z,0.00
2023-01-27T03:06:54.161Z,0.00
2023-01-27T03:07:54.150Z,0.00
2023-01-27T03:08:54.147Z,0.00
2023-01-27T03:09:54.117Z,0.00
2023-01-27T03:10:54.144Z,0.00
2023-01-27T03:11:54.130Z,0.00
2023-01-27T03:12:54.090Z,0.00
2023-01-27T03:13:54.091Z,0.00
2023-01-27T03:14:54.081Z,0.00
2023-01-27T03:15:54.156Z,0.00
2023-01-27T03:16:54.070Z,0.00
2023-01-27T03:17:54.060Z,0.00
2023-01-27T03:18:54.028Z,0.00
2023-01-27T03:19:54.026Z,0.00
2023-01-27T03:20:54.020Z,0.00
2023-01-27T03:21:54.029Z,0.00
2023-01-27T03:22:54.031Z,0.00
2023-01-27T03:23:54.005Z,0.00
2023-01-27T03:24:53.979Z,0.00
2023-01-27T03:25:53.969Z,0.00
2023-01-27T03:26:53.959Z,0.00
2023-01-27T03:27:53.941Z,0.00
2023-01-27T03:28:53.922Z,0.00
2023-01-27T03:29:53.921Z,0.00
2023-01-27T03:30:53.996Z,0.00
2023-01-27T03:31:54.014Z,0.00
2023-01-27T03:32:53.876Z,0.00
2023-01-27T03:33:53.872Z,0.00
2023-01-27T03:34:53.860Z,0.00
2023-01-27T03:35:53.859Z,0.00
2023-01-27T03:36:53.831Z,0.00
2023-01-27T03:37:53.840Z,0.00
2023-01-27T03:38:53.809Z,0.00
2023-01-27T03:39:53.806Z,0.00
2023-01-27T03:40:53.799Z,0.00
2023-01-27T03:41:53.796Z,0.00
2023-01-27T03:42:53.779Z,0.00
2023-01-27T03:43:53.767Z,0.00
2023-01-27T03:44:53.750Z,0.00
2023-01-27T03:45:53.768Z,0.00
2023-01-27T03:46:53.745Z,0.00
2023-01-27T03:47:53.731Z,0.00
2023-01-27T03:48:53.722Z,0.00
2023-01-27T03:49:53.700Z,0.00
2023-01-27T03:50:53.821Z,0.00
2023-01-27T03:51:53.672Z,0.00
2023-01-27T03:52:53.671Z,0.00
2023-01-27T03:53:53.665Z,0.00
2023-01-27T03:54:53.640Z,0.00
2023-01-27T03:55:53.661Z,0.00
2023-01-27T03:56:53.631Z,0.00
2023-01-27T03:57:53.621Z,0.00
2023-01-27T03:58:53.610Z,0.00
2023-01-27T03:59:53.596Z,0.00
2023-01-27T04:00:53.590Z,0.00
2023-01-27T04:01:53.601Z,0.00
2023-01-27T04:02:53.612Z,0.00
2023-01-27T04:03:53.556Z,0.00
2023-01-27T04:04:53.541Z,0.00
2023-01-27T04:05:53.551Z,0.00
2023-01-27T04:06:53.523Z,0.00
2023-01-27T04:07:53.506Z,0.00
2023-01-27T04:08:53.510Z,0.00
2023-01-27T04:09:53.485Z,0.00
2023-01-27T04:10:53.522Z,0.00
2023-01-27T04:11:53.471Z,0.00
2023-01-27T04:12:53.463Z,0.00
2023-01-27T04:13:53.444Z,0.00
2023-01-27T04:14:53.436Z,0.00
2023-01-27T04:15:53.473Z,0.00
2023-01-27T04:16:53.421Z,0.00
2023-01-27T04:17:53.398Z,0.00
2023-01-27T04:18:53.394Z,0.00
2023-01-27T04:19:53.387Z,0.00
2023-01-27T04:20:53.497Z,0.00
2023-01-27T04:21:53.356Z,0.00
2023-01-27T04:22:53.374Z,0.00
2023-01-27T04:23:53.390Z,0.00
2023-01-27T04:24:53.356Z,0.00
2023-01-27T04:25:53.323Z,0.00
2023-01-27T04:26:53.304Z,0.00
2023-01-27T04:27:53.307Z,0.00
2023-01-27T04:28:53.401Z,0.00
2023-01-27T04:29:53.273Z,0.00
2023-01-27T04:30:53.540Z,0.00
2023-01-27T04:31:53.289Z,0.00
2023-01-27T04:32:53.246Z,0.00
2023-01-27T04:33:53.227Z,0.00
2023-01-27T04:34:53.226Z,0.00
2023-01-27T04:35:53.223Z,0.00
2023-01-27T04:36:53.209Z,0.00
2023-01-27T04:37:53.185Z,0.00
2023-01-27T04:38:53.182Z,0.00
2023-01-27T04:39:53.167Z,0.00
2023-01-27T04:40:53.173Z,0.00
2023-01-27T04:41:53.147Z,0.00
2023-01-27T04:42:53.154Z,0.00
2023-01-27T04:43:53.124Z,0.00
2023-01-27T04:44:53.128Z,0.00
2023-01-27T04:45:53.135Z,0.00
2023-01-27T04:46:53.109Z,0.00
2023-01-27T04:47:53.086Z,0.00
2023-01-27T04:48:53.075Z,0.00
2023-01-27T04:49:53.055Z,0.00
2023-01-27T04:50:53.076Z,0.00
2023-01-27T04:51:53.036Z,0.00
2023-01-27T04:52:53.037Z,0.00
2023-01-27T04:53:53.021Z,0.00
2023-01-27T04:54:53.005Z,0.00
2023-01-27T04:55:53.007Z,0.00
2023-01-27T04:56:52.989Z,0.00
2023-01-27T04:57:52.981Z,0.00
2023-01-27T04:58:52.964Z,0.00
2023-01-27T04:59:52.958Z,0.00
2023-01-27T05:00:52.946Z,0.00
2023-01-27T05:01:52.987Z,0.00
2023-01-27T05:02:52.983Z,0.00
2023-01-27T05:03:52.905Z,0.00
2023-01-27T05:04:52.911Z,0.00
2023-01-27T05:05:52.905Z,0.00
2023-01-27T05:06:52.895Z,0.00
2023-01-27T05:07:52.867Z,0.00
2023-01-27T05:08:52.954Z,0.00
2023-01-27T05:09:52.869Z,0.00
2023-01-27T05:10:52.861Z,0.00
2023-01-27T05:11:52.844Z,0.00
2023-01-27T05:12:52.826Z,0.00
2023-01-27T05:13:52.821Z,0.00
2023-01-27T05:14:52.797Z,0.00
2023-01-27T05:15:52.878Z,0.00
2023-01-27T05:16:52.887Z,0.00
2023-01-27T05:17:52.776Z,0.00
2023-01-27T05:18:52.757Z,0.00
2023-01-27T05:19:52.737Z,0.00
2023-01-27T05:20:52.769Z,0.00
2023-01-27T05:21:52.720Z,0.00
2023-01-27T05:22:52.717Z,0.00
2023-01-27T05:23:52.796Z,0.00
2023-01-27T05:24:52.687Z,0.00
2023-01-27T05:25:52.692Z,0.00
2023-01-27T05:26:52.669Z,0.00
2023-01-27T05:27:52.728Z,0.00
2023-01-27T05:28:52.670Z,0.00
2023-01-27T05:29:52.642Z,0.00
2023-01-27T05:30:52.716Z,0.00
2023-01-27T05:31:52.702Z,0.00
2023-01-27T05:32:52.628Z,0.00
2023-01-27T05:33:52.607Z,0.00
2023-01-27T05:34:52.590Z,0.00
2023-01-27T05:35:52.588Z,0.00
2023-01-27T05:36:52.569Z,0.00
2023-01-27T05:37:52.579Z,0.00
2023-01-27T05:38:52.558Z,0.00
2023-01-27T05:39:52.545Z,0.00
2023-01-27T05:40:52.560Z,0.00
2023-01-27T05:41:52.509Z,0.00
2023-01-27T05:42:52.502Z,0.00
2023-01-27T05:43:52.493Z,0.00
2023-01-27T05:44:52.488Z,0.00
2023-01-27T05:45:52.471Z,0.00
2023-01-27T05:46:52.464Z,0.00
2023-01-27T05:47:52.449Z,0.00
2023-01-27T05:48:52.456Z,0.00
2023-01-27T05:49:52.419Z,0.00
2023-01-27T05:50:52.443Z,0.00
2023-01-27T05:51:52.400Z,0.00
2023-01-27T05:52:52.402Z,0.00
2023-01-27T05:53:52.409Z,0.00
2023-01-27T05:54:52.378Z,0.00
2023-01-27T05:55:52.380Z,0.00
2023-01-27T05:56:52.469Z,0.00
2023-01-27T05:57:52.330Z,0.00
2023-01-27T05:58:52.349Z,0.00
2023-01-27T05:59:52.325Z,0.00
2023-01-27T06:00:52.321Z,0.00
2023-01-27T06:01:52.343Z,0.00
2023-01-27T06:02:52.317Z,0.00
2023-01-27T06:03:52.273Z,0.00
2023-01-27T06:04:52.272Z,0.00
2023-01-27T06:05:52.263Z,0.00
2023-01-27T06:06:52.250Z,0.00
2023-01-27T06:07:52.233Z,0.00
2023-01-27T06:08:52.248Z,0.00
2023-01-27T06:09:52.214Z,0.00
2023-01-27T06:10:52.212Z,0.00
2023-01-27T06:11:52.201Z,0.00
2023-01-27T06:12:52.200Z,0.00
2023-01-27T06:13:52.178Z,0.00
2023-01-27T06:14:52.168Z,0.00
2023-01-27T06:15:52.177Z,0.00
2023-01-27T06:16:52.163Z,0.00
2023-01-27T06:17:52.925Z,0.00
2023-01-27T06:18:52.121Z,0.00
2023-01-27T06:19:52.103Z,0.00
2023-01-27T06:20:52.135Z,0.00
2023-01-27T06:21:52.097Z,0.00
2023-01-27T06:22:52.093Z,0.00
2023-01-27T06:23:52.127Z,0.00
2023-01-27T06:24:52.053Z,0.00
2023-01-27T06:25:52.047Z,0.00
2023-01-27T06:26:52.055Z,0.00
2023-01-27T06:27:52.014Z,0.00
2023-01-27T06:28:52.025Z,0.00
2023-01-27T06:29:52.001Z,0.00
2023-01-27T06:30:52.041Z,0.00
2023-01-27T06:31:52.065Z,0.00
2023-01-27T06:32:52.011Z,0.00
2023-01-27T06:33:51.971Z,0.00
2023-01-27T06:34:51.962Z,0.00
2023-01-27T06:35:51.943Z,0.00
2023-01-27T06:36:51.935Z,0.00
2023-01-27T06:37:51.949Z,0.00
2023-01-27T06:38:51.906Z,0.00
2023-01-27T06:39:51.892Z,0.00
2023-01-27T06:40:51.886Z,0.00
2023-01-27T06:41:51.917Z,0.00
2023-01-27T06:42:51.866Z,0.00
2023-01-27T06:43:51.865Z,0.00
2023-01-27T06:44:51.844Z,0.00
2023-01-27T06:45:51.842Z,0.00
2023-01-27T06:46:51.839Z,0.00
2023-01-27T06:47:51.814Z,0.00
2023-01-27T06:48:51.794Z,0.00
2023-01-27T06:49:51.801Z,0.00
2023-01-27T06:50:51.775Z,0.00
2023-01-27T06:51:51.903Z,0.00
2023-01-27T06:52:51.754Z,0.00
2023-01-27T06:53:51.752Z,0.00
2023-01-27T06:54:51.733Z,0.00
2023-01-27T06:55:51.734Z,0.00
2023-01-27T06:56:51.725Z,0.00
2023-01-27T06:57:51.718Z,0.00
2023-01-27T06:58:51.694Z,0.00
2023-01-27T06:59:51.688Z,0.00
2023-01-27T07:00:51.665Z,0.00
2023-01-27T07:01:51.739Z,0.00
2023-01-27T07:02:51.692Z,0.00
2023-01-27T07:03:51.642Z,0.00
2023-01-27T07:04:51.625Z,0.00
2023-01-27T07:05:51.620Z,0.00
2023-01-27T07:06:51.616Z,0.00
2023-01-27T07:07:51.608Z,0.00
2023-01-27T07:08:53.540Z,0.00
2023-01-27T07:09:52.927Z,0.00
2023-01-27T07:10:51.581Z,0.00
2023-01-27T07:11:51.617Z,0.00
2023-01-27T07:12:51.538Z,0.00
2023-01-27T07:13:51.536Z,0.00
2023-01-27T07:14:51.527Z,0.00
2023-01-27T07:15:51.515Z,5.62
2023-01-27T07:16:51.516Z,5.62
2023-01-27T07:17:51.494Z,5.62
2023-01-27T07:18:51.518Z,5.62
2023-01-27T07:19:51.468Z,5.62
2023-01-27T07:20:51.456Z,5.62
2023-01-27T07:21:51.464Z,5.62
2023-01-27T07:22:51.447Z,5.62
2023-01-27T07:23:51.457Z,5.62
2023-01-27T07:24:51.435Z,11.25
2023-01-27T07:25:51.423Z,11.25
2023-01-27T07:26:51.413Z,11.25
2023-01-27T07:27:51.386Z,11.25
2023-01-27T07:28:51.388Z,11.25
2023-01-27T07:29:51.366Z,16.88
2023-01-27T07:30:51.382Z,16.88
2023-01-27T07:31:51.419Z,16.88
2023-01-27T07:32:51.339Z,16.88
2023-01-27T07:33:51.318Z,16.88
2023-01-27T07:34:51.345Z,16.88
2023-01-27T07:35:51.322Z,16.88
2023-01-27T07:36:51.325Z,16.88
2023-01-27T07:37:51.279Z,22.50
2023-01-27T07:38:51.329Z,22.50
2023-01-27T07:39:51.248Z,28.12
2023-01-27T07:40:51.265Z,33.75
2023-01-27T07:41:51.272Z,33.75
2023-01-27T07:42:51.229Z,39.38
2023-01-27T07:43:52.426Z,39.38
2023-01-27T07:44:51.208Z,39.38
2023-01-27T07:45:51.234Z,39.38
2023-01-27T07:46:51.212Z,39.38
2023-01-27T07:47:51.200Z,39.38
2023-01-27T07:48:51.168Z,39.38
2023-01-27T07:49:51.152Z,39.38
2023-01-27T07:50:51.270Z,45.00
2023-01-27T07:51:51.151Z,56.25
2023-01-27T07:52:51.128Z,61.88
2023-01-27T07:53:51.116Z,73.12
2023-01-27T07:54:51.099Z,78.75
2023-01-27T07:55:51.100Z,84.38
2023-01-27T07:56:51.103Z,84.38
2023-01-27T07:57:51.060Z,90.00
2023-01-27T07:58:51.080Z,95.62
2023-01-27T07:59:51.042Z,101.25
2023-01-27T08:00:51.130Z,106.88
2023-01-27T08:01:51.047Z,106.88
2023-01-27T08:02:51.085Z,106.88
2023-01-27T08:03:51.006Z,101.25
2023-01-27T08:04:53.240Z,95.62
2023-01-27T08:05:50.983Z,101.25
2023-01-27T08:06:50.977Z,106.88
2023-01-27T08:07:50.983Z,106.88
2023-01-27T08:08:50.961Z,112.50
2023-01-27T08:09:50.941Z,112.50
2023-01-27T08:10:50.935Z,106.88
2023-01-27T08:11:50.941Z,106.88
2023-01-27T08:12:50.969Z,101.25
2023-01-27T08:13:50.891Z,106.88
2023-01-27T08:14:50.899Z,118.12
2023-01-27T08:15:50.870Z,123.75
2023-01-27T08:16:50.974Z,129.38
2023-01-27T08:17:50.859Z,135.00
2023-01-27T08:18:50.851Z,140.62
2023-01-27T08:19:50.833Z,146.25
2023-01-27T08:20:50.830Z,146.25
2023-01-27T08:21:50.814Z,146.25
2023-01-27T08:22:50.802Z,146.25
2023-01-27T08:23:50.844Z,140.62
2023-01-27T08:24:50.784Z,140.62
2023-01-27T08:25:50.771Z,140.62
2023-01-27T08:26:50.780Z,135.00
2023-01-27T08:27:50.742Z,140.62
2023-01-27T08:28:50.741Z,140.62
2023-01-27T08:29:50.733Z,146.25
2023-01-27T08:30:50.757Z,146.25
2023-01-27T08:31:50.744Z,151.88
2023-01-27T08:32:50.709Z,151.88
2023-01-27T08:33:50.692Z,157.50
2023-01-27T08:34:50.693Z,163.12
2023-01-27T08:35:50.663Z,174.38
2023-01-27T08:36:50.662Z,180.00
2023-01-27T08:37:50.650Z,185.62
2023-01-27T08:38:50.658Z,185.62
2023-01-27T08:39:50.616Z,180.00
2023-01-27T08:40:50.612Z,174.38
2023-01-27T08:41:50.682Z,174.38
2023-01-27T08:42:50.594Z,174.38
2023-01-27T08:43:50.573Z,174.38
2023-01-27T08:44:50.565Z,174.38
2023-01-27T08:45:50.565Z,180.00
2023-01-27T08:46:50.553Z,191.25
2023-01-27T08:47:50.572Z,191.25
2023-01-27T08:48:50.527Z,196.88
2023-01-27T08:49:50.504Z,196.88
2023-01-27T08:50:50.516Z,202.50
2023-01-27T08:51:50.493Z,219.38
2023-01-27T08:52:50.492Z,241.88
2023-01-27T08:53:50.467Z,264.38
2023-01-27T08:54:50.454Z,275.62
2023-01-27T08:55:50.445Z,303.75
2023-01-27T08:56:50.457Z,331.88
2023-01-27T08:57:50.434Z,354.38
2023-01-27T08:58:50.415Z,365.62
2023-01-27T08:59:50.420Z,365.62
2023-01-27T09:00:50.396Z,382.50
2023-01-27T09:01:50.395Z,388.12
2023-01-27T09:02:50.402Z,371.25
2023-01-27T09:03:50.367Z,365.62
2023-01-27T09:04:50.448Z,365.62
2023-01-27T09:05:50.344Z,376.88
2023-01-27T09:06:50.345Z,382.50
2023-01-27T09:07:50.337Z,393.75
2023-01-27T09:08:50.339Z,416.25
2023-01-27T09:09:51.287Z,427.50
2023-01-27T09:10:51.301Z,427.50
2023-01-27T09:11:50.289Z,421.88
2023-01-27T09:12:50.269Z,427.50
2023-01-27T09:13:50.254Z,427.50
2023-01-27T09:14:50.280Z,421.88
2023-01-27T09:15:50.263Z,433.12
2023-01-27T09:16:50.246Z,444.38
2023-01-27T09:17:50.226Z,461.25
2023-01-27T09:18:50.211Z,472.50
2023-01-27T09:19:50.227Z,478.12
2023-01-27T09:20:50.190Z,472.50
2023-01-27T09:21:50.177Z,455.62
2023-01-27T09:22:50.169Z,438.75
2023-01-27T09:23:50.203Z,421.88
2023-01-27T09:24:50.153Z,416.25
2023-01-27T09:25:50.138Z,433.12
2023-01-27T09:26:50.137Z,466.88
2023-01-27T09:27:50.108Z,506.25
2023-01-27T09:28:50.100Z,556.88
2023-01-27T09:29:50.098Z,579.38
2023-01-27T09:30:50.125Z,613.12
2023-01-27T09:31:50.098Z,624.38
2023-01-27T09:32:50.066Z,624.38
2023-01-27T09:33:50.058Z,596.25
2023-01-27T09:34:50.040Z,573.75
2023-01-27T09:35:50.019Z,568.12
2023-01-27T09:36:50.020Z,545.62
2023-01-27T09:37:50.017Z,517.50
2023-01-27T09:38:49.990Z,483.75
2023-01-27T09:39:49.980Z,461.25
2023-01-27T09:40:49.985Z,416.25
2023-01-27T09:41:49.976Z,388.12
2023-01-27T09:42:49.960Z,371.25
2023-01-27T09:43:49.944Z,360.00
2023-01-27T09:44:49.952Z,354.38
2023-01-27T09:45:49.960Z,354.38
2023-01-27T09:46:50.099Z,360.00
2023-01-27T09:47:49.903Z,354.38
2023-01-27T09:48:49.900Z,376.88
2023-01-27T09:49:49.880Z,376.88
2023-01-27T09:50:49.872Z,371.25
2023-01-27T09:51:49.866Z,371.25
2023-01-27T09:52:49.842Z,360.00
2023-01-27T09:53:49.834Z,343.12
2023-01-27T09:54:49.817Z,337.50
2023-01-27T09:55:49.824Z,376.88
2023-01-27T09:56:49.852Z,388.12
2023-01-27T09:57:49.790Z,354.38
2023-01-27T09:58:49.772Z,348.75
2023-01-27T09:59:49.769Z,309.38
2023-01-27T10:00:49.756Z,275.62
2023-01-27T10:01:49.784Z,247.50
2023-01-27T10:02:49.746Z,236.25
2023-01-27T10:03:49.736Z,247.50
2023-01-27T10:04:49.754Z,253.12
2023-01-27T10:05:49.706Z,241.88
2023-01-27T10:06:49.708Z,236.25
2023-01-27T10:07:49.711Z,241.88
2023-01-27T10:08:49.675Z,253.12
2023-01-27T10:09:49.658Z,275.62
2023-01-27T10:10:49.649Z,264.38
2023-01-27T10:11:49.655Z,241.88
2023-01-27T10:12:49.623Z,236.25
2023-01-27T10:13:49.628Z,247.50
2023-01-27T10:14:49.607Z,258.75
2023-01-27T10:15:49.605Z,264.38
2023-01-27T10:16:49.598Z,264.38
2023-01-27T10:17:49.590Z,281.25
2023-01-27T10:18:49.575Z,331.88
2023-01-27T10:19:49.555Z,360.00
2023-01-27T10:20:49.555Z,382.50
2023-01-27T10:21:49.550Z,365.62
2023-01-27T10:22:49.517Z,382.50
2023-01-27T10:23:49.645Z,444.38
2023-01-27T10:24:49.508Z,483.75
2023-01-27T10:25:49.499Z,495.00
2023-01-27T10:26:49.511Z,489.38
2023-01-27T10:27:49.468Z,483.75
2023-01-27T10:28:49.456Z,517.50
2023-01-27T10:29:49.449Z,455.62
2023-01-27T10:30:49.486Z,466.88
2023-01-27T10:31:49.471Z,472.50
2023-01-27T10:32:49.406Z,455.62
2023-01-27T10:33:49.397Z,438.75
2023-01-27T10:34:49.392Z,388.12
2023-01-27T10:35:49.430Z,360.00
2023-01-27T10:36:49.382Z,360.00
2023-01-27T10:37:49.371Z,337.50
2023-01-27T10:38:49.346Z,348.75
2023-01-27T10:39:49.338Z,315.00
2023-01-27T10:40:49.325Z,286.88
2023-01-27T10:41:49.329Z,270.00
2023-01-27T10:42:49.307Z,247.50
2023-01-27T10:43:50.158Z,258.75
2023-01-27T10:44:49.281Z,275.62
2023-01-27T10:45:49.313Z,270.00
2023-01-27T10:46:49.297Z,264.38
2023-01-27T10:47:49.273Z,264.38
2023-01-27T10:48:49.242Z,236.25
2023-01-27T10:49:49.233Z,230.62
2023-01-27T10:50:49.218Z,219.38
2023-01-27T10:51:49.219Z,208.12
2023-01-27T10:52:49.214Z,225.00
2023-01-27T10:53:49.186Z,230.62
2023-01-27T10:54:49.161Z,225.00
2023-01-27T10:55:49.161Z,253.12
2023-01-27T10:56:49.165Z,281.25
2023-01-27T10:57:49.140Z,253.12
2023-01-27T10:58:49.147Z,225.00
2023-01-27T11:00:10.969Z,230.62
2023-01-27T11:01:20.415Z,258.75
2023-01-27T11:01:50.146Z,286.88
2023-01-27T11:02:49.082Z,309.38
2023-01-27T11:03:49.098Z,315.00
2023-01-27T11:04:49.063Z,320.62
2023-01-27T11:05:49.095Z,309.38
2023-01-27T11:06:49.042Z,286.88
2023-01-27T11:07:49.032Z,281.25
2023-01-27T11:08:49.012Z,258.75
2023-01-27T11:09:49.015Z,258.75
2023-01-27T11:10:49.000Z,270.00
2023-01-27T11:11:48.996Z,286.88
2023-01-27T11:12:48.965Z,292.50
2023-01-27T11:13:48.964Z,292.50
2023-01-27T11:14:48.985Z,315.00
2023-01-27T11:15:48.945Z,337.50
2023-01-27T11:16:49.036Z,348.75
2023-01-27T11:17:48.961Z,348.75
2023-01-27T11:18:48.913Z,337.50
2023-01-27T11:19:48.925Z,303.75
2023-01-27T11:20:48.906Z,281.25
2023-01-27T11:22:01.648Z,270.00
2023-01-27T11:22:49.924Z,275.62
2023-01-27T11:23:48.902Z,275.62
2023-01-27T11:24:48.845Z,264.38
2023-01-27T11:25:48.835Z,292.50
2023-01-27T11:26:48.838Z,303.75
2023-01-27T11:27:48.833Z,298.12
2023-01-27T11:28:48.805Z,292.50
2023-01-27T11:29:48.861Z,270.00
2023-01-27T11:30:48.813Z,241.88
2023-01-27T11:31:48.857Z,236.25
2023-01-27T11:32:48.756Z,247.50
2023-01-27T11:33:48.756Z,270.00
2023-01-27T11:34:48.742Z,264.38
2023-01-27T11:35:48.726Z,253.12
2023-01-27T11:36:49.978Z,303.75
2023-01-27T11:37:48.722Z,337.50
2023-01-27T11:38:48.689Z,331.88
2023-01-27T11:39:48.685Z,315.00
2023-01-27T11:40:48.677Z,337.50
2023-01-27T11:41:48.657Z,365.62
2023-01-27T11:42:50.099Z,421.88
2023-01-27T11:43:48.638Z,506.25
2023-01-27T11:44:48.644Z,585.00
2023-01-27T11:45:48.641Z,562.50
2023-01-27T11:46:48.621Z,528.75
2023-01-27T11:47:48.628Z,517.50
2023-01-27T11:48:48.585Z,495.00
2023-01-27T11:49:48.568Z,472.50
2023-01-27T11:50:48.569Z,421.88
2023-01-27T11:51:48.547Z,354.38
2023-01-27T11:52:48.563Z,343.12
2023-01-27T11:53:48.550Z,360.00
2023-01-27T11:54:48.528Z,343.12
2023-01-27T11:55:48.508Z,315.00
2023-01-27T11:56:48.511Z,292.50
2023-01-27T11:57:48.490Z,264.38
2023-01-27T11:58:48.481Z,264.38
2023-01-27T11:59:48.459Z,258.75
2023-01-27T12:00:48.467Z,253.12
2023-01-27T12:01:48.473Z,264.38
2023-01-27T12:02:48.469Z,275.62
2023-01-27T12:03:48.438Z,275.62
2023-01-27T12:04:48.456Z,298.12
2023-01-27T12:05:48.420Z,348.75
2023-01-27T12:06:48.390Z,382.50
2023-01-27T12:07:48.393Z,331.88
2023-01-27T12:08:48.371Z,281.25
2023-01-27T12:09:48.353Z,275.62
2023-01-27T12:10:48.351Z,270.00
2023-01-27T12:11:48.357Z,258.75
2023-01-27T12:12:48.356Z,247.50
2023-01-27T12:13:48.384Z,270.00
2023-01-27T12:14:48.311Z,309.38
2023-01-27T12:15:48.308Z,331.88
2023-01-27T12:16:48.346Z,337.50
2023-01-27T12:17:48.294Z,343.12
2023-01-27T12:18:48.263Z,371.25
2023-01-27T12:19:48.262Z,421.88
2023-01-27T12:20:48.248Z,427.50
2023-01-27T12:21:48.238Z,433.12
2023-01-27T12:22:48.252Z,433.12
2023-01-27T12:23:48.233Z,405.00
2023-01-27T12:24:48.209Z,348.75
2023-01-27T12:25:50.543Z,320.62
2023-01-27T12:26:48.183Z,298.12
2023-01-27T12:27:48.185Z,270.00
2023-01-27T12:28:48.164Z,253.12
2023-01-27T12:29:48.146Z,241.88
2023-01-27T12:30:48.185Z,241.88
2023-01-27T12:31:48.165Z,253.12
2023-01-27T12:32:48.144Z,264.38
2023-01-27T12:33:48.108Z,241.88
2023-01-27T12:34:48.224Z,225.00
2023-01-27T12:35:48.085Z,196.88
2023-01-27T12:36:48.098Z,185.62
2023-01-27T12:37:48.071Z,185.62
2023-01-27T12:38:48.057Z,196.88
2023-01-27T12:39:48.040Z,230.62
2023-01-27T12:40:48.069Z,253.12
2023-01-27T12:41:48.025Z,253.12
2023-01-27T12:42:48.023Z,258.75
2023-01-27T12:43:48.027Z,298.12
2023-01-27T12:44:47.989Z,343.12
2023-01-27T12:45:47.977Z,360.00
2023-01-27T12:46:47.992Z,405.00
2023-01-27T12:47:47.969Z,466.88
2023-01-27T12:48:47.938Z,489.38
2023-01-27T12:49:47.938Z,483.75
2023-01-27T12:50:47.933Z,511.88
2023-01-27T12:51:47.909Z,669.38
2023-01-27T12:52:47.920Z,658.12
2023-01-27T12:53:47.888Z,545.62
2023-01-27T12:54:47.892Z,489.38
2023-01-27T12:55:47.900Z,450.00
2023-01-27T12:56:47.873Z,427.50
2023-01-27T12:57:47.868Z,427.50